sensor_id;sensor_type;location;lat;lon;timestamp;temperature;humidity
7720;DHT22;3902;49.474;8.616;2023-07-28T00:02:19;19.00;99.90
7720;DHT22;3902;49.474;8.616;2023-07-28T00:04:44;19.00;99.90
7720;DHT22;3902;49.474;8.616;2023-07-28T00:07:10;19.00;99.90
7720;DHT22;3902;49.474;8.616;2023-07-28T00:09:35;19.00;99.90
7720;DHT22;3902;49.474;8.616;2023-07-28T00:12:01;19.00;99.90
7720;DHT22;3902;49.474;8.616;2023-07-28T00:14:27;19.00;99.90
7720;DHT22;3902;49.474;8.616;2023-07-28T00:16:55;19.00;99.90
7720;DHT22;3902;49.474;8.616;2023-07-28T00:19:21;19.00;99.90
7720;DHT22;3902;49.474;8.616;2023-07-28T00:21:48;19.00;99.90
7720;DHT22;3902;49.474;8.616;2023-07-28T00:24:13;19.00;99.90
7720;DHT22;3902;49.474;8.616;2023-07-28T00:26:40;19.00;99.90
7720;DHT22;3902;49.474;8.616;2023-07-28T00:29:06;19.00;99.90
7720;DHT22;3902;49.474;8.616;2023-07-28T00:31:33;19.00;99.90
7720;DHT22;3902;49.474;8.616;2023-07-28T00:33:58;19.00;99.90
7720;DHT22;3902;49.474;8.616;2023-07-28T00:36:24;19.00;99.90
7720;DHT22;3902;49.474;8.616;2023-07-28T00:38:49;19.00;99.90
7720;DHT22;3902;49.474;8.616;2023-07-28T00:41:15;19.00;99.90
7720;DHT22;3902;49.474;8.616;2023-07-28T00:43:41;19.00;99.90
7720;DHT22;3902;49.474;8.616;2023-07-28T00:46:06;19.00;99.90
7720;DHT22;3902;49.474;8.616;2023-07-28T00:48:32;19.00;99.90
7720;DHT22;3902;49.474;8.616;2023-07-28T00:50:58;19.00;99.90
7720;DHT22;3902;49.474;8.616;2023-07-28T00:53:24;19.00;99.90
7720;DHT22;3902;49.474;8.616;2023-07-28T00:55:50;19.00;99.90
7720;DHT22;3902;49.474;8.616;2023-07-28T00:58:16;19.00;99.90
7720;DHT22;3902;49.474;8.616;2023-07-28T01:00:42;19.00;99.90
7720;DHT22;3902;49.474;8.616;2023-07-28T01:03:07;19.00;99.90
7720;DHT22;3902;49.474;8.616;2023-07-28T01:08:34;19.00;99.90
7720;DHT22;3902;49.474;8.616;2023-07-28T01:11:01;19.00;99.90
7720;DHT22;3902;49.474;8.616;2023-07-28T01:13:26;19.00;99.90
7720;DHT22;3902;49.474;8.616;2023-07-28T01:15:53;19.00;99.90
7720;DHT22;3902;49.474;8.616;2023-07-28T01:18:18;19.00;99.90
7720;DHT22;3902;49.474;8.616;2023-07-28T01:20:45;19.00;99.90
7720;DHT22;3902;49.474;8.616;2023-07-28T01:23:42;19.00;99.90
7720;DHT22;3902;49.474;8.616;2023-07-28T01:26:11;19.00;99.90
7720;DHT22;3902;49.474;8.616;2023-07-28T01:28:39;19.00;99.90
7720;DHT22;3902;49.474;8.616;2023-07-28T01:31:06;19.00;99.90
7720;DHT22;3902;49.474;8.616;2023-07-28T01:33:32;19.00;99.90
7720;DHT22;3902;49.474;8.616;2023-07-28T01:35:58;19.00;99.90
7720;DHT22;3902;49.474;8.616;2023-07-28T01:38:26;19.00;99.90
7720;DHT22;3902;49.474;8.616;2023-07-28T01:40:52;19.00;99.90
7720;DHT22;3902;49.474;8.616;2023-07-28T01:43:17;19.00;99.90
7720;DHT22;3902;49.474;8.616;2023-07-28T01:45:43;19.00;99.90
7720;DHT22;3902;49.474;8.616;2023-07-28T01:48:08;19.00;99.90
7720;DHT22;3902;49.474;8.616;2023-07-28T01:50:37;19.00;99.90
7720;DHT22;3902;49.474;8.616;2023-07-28T01:53:05;19.00;99.90
7720;DHT22;3902;49.474;8.616;2023-07-28T01:55:30;19.00;99.90
7720;DHT22;3902;49.474;8.616;2023-07-28T01:57:58;19.00;99.90
7720;DHT22;3902;49.474;8.616;2023-07-28T02:00:24;19.00;99.90
7720;DHT22;3902;49.474;8.616;2023-07-28T02:02:50;19.00;99.90
7720;DHT22;3902;49.474;8.616;2023-07-28T02:05:15;19.00;99.90
7720;DHT22;3902;49.474;8.616;2023-07-28T02:07:41;19.00;99.90
7720;DHT22;3902;49.474;8.616;2023-07-28T02:10:07;19.00;99.90
7720;DHT22;3902;49.474;8.616;2023-07-28T02:12:33;19.00;99.90
7720;DHT22;3902;49.474;8.616;2023-07-28T02:14:59;19.00;99.90
7720;DHT22;3902;49.474;8.616;2023-07-28T02:17:25;19.00;99.90
7720;DHT22;3902;49.474;8.616;2023-07-28T02:19:50;19.00;99.90
7720;DHT22;3902;49.474;8.616;2023-07-28T02:22:16;19.00;99.90
7720;DHT22;3902;49.474;8.616;2023-07-28T02:24:41;19.00;99.90
7720;DHT22;3902;49.474;8.616;2023-07-28T02:27:07;19.00;99.90
7720;DHT22;3902;49.474;8.616;2023-07-28T02:29:32;19.00;99.90
7720;DHT22;3902;49.474;8.616;2023-07-28T02:31:58;19.00;99.90
7720;DHT22;3902;49.474;8.616;2023-07-28T02:34:23;19.00;99.90
7720;DHT22;3902;49.474;8.616;2023-07-28T02:36:49;19.00;99.90
7720;DHT22;3902;49.474;8.616;2023-07-28T02:39:14;19.00;99.90
7720;DHT22;3902;49.474;8.616;2023-07-28T02:41:41;19.00;99.90
7720;DHT22;3902;49.474;8.616;2023-07-28T02:44:06;19.00;99.90
7720;DHT22;3902;49.474;8.616;2023-07-28T02:46:32;19.00;99.90
7720;DHT22;3902;49.474;8.616;2023-07-28T02:48:57;19.00;99.90
7720;DHT22;3902;49.474;8.616;2023-07-28T02:51:23;19.00;99.90
7720;DHT22;3902;49.474;8.616;2023-07-28T02:53:48;19.00;99.90
7720;DHT22;3902;49.474;8.616;2023-07-28T02:56:14;19.00;99.90
7720;DHT22;3902;49.474;8.616;2023-07-28T02:58:39;19.00;99.90
7720;DHT22;3902;49.474;8.616;2023-07-28T03:01:05;19.00;99.90
7720;DHT22;3902;49.474;8.616;2023-07-28T03:03:30;19.00;99.90
7720;DHT22;3902;49.474;8.616;2023-07-28T03:05:56;19.00;99.90
7720;DHT22;3902;49.474;8.616;2023-07-28T03:08:22;19.00;99.90
7720;DHT22;3902;49.474;8.616;2023-07-28T03:10:48;19.00;99.90
7720;DHT22;3902;49.474;8.616;2023-07-28T03:13:13;19.00;99.90
7720;DHT22;3902;49.474;8.616;2023-07-28T03:15:39;19.00;99.90
7720;DHT22;3902;49.474;8.616;2023-07-28T03:18:05;19.00;99.90
7720;DHT22;3902;49.474;8.616;2023-07-28T03:20:30;19.00;99.90
7720;DHT22;3902;49.474;8.616;2023-07-28T03:22:56;19.00;99.90
7720;DHT22;3902;49.474;8.616;2023-07-28T03:25:21;19.00;99.90
7720;DHT22;3902;49.474;8.616;2023-07-28T03:27:47;19.00;99.90
7720;DHT22;3902;49.474;8.616;2023-07-28T03:30:14;19.00;99.90
7720;DHT22;3902;49.474;8.616;2023-07-28T03:32:39;19.00;99.90
7720;DHT22;3902;49.474;8.616;2023-07-28T03:35:05;19.00;99.90
7720;DHT22;3902;49.474;8.616;2023-07-28T03:37:32;19.00;99.90
7720;DHT22;3902;49.474;8.616;2023-07-28T03:39:58;19.00;99.90
7720;DHT22;3902;49.474;8.616;2023-07-28T03:42:23;19.00;99.90
7720;DHT22;3902;49.474;8.616;2023-07-28T03:44:49;19.00;99.90
7720;DHT22;3902;49.474;8.616;2023-07-28T03:47:15;19.10;99.90
7720;DHT22;3902;49.474;8.616;2023-07-28T03:49:40;19.00;99.90
7720;DHT22;3902;49.474;8.616;2023-07-28T03:52:06;19.00;99.90
7720;DHT22;3902;49.474;8.616;2023-07-28T03:54:31;19.00;99.90
7720;DHT22;3902;49.474;8.616;2023-07-28T03:56:57;19.00;99.90
7720;DHT22;3902;49.474;8.616;2023-07-28T03:59:22;19.00;99.90
7720;DHT22;3902;49.474;8.616;2023-07-28T04:01:48;19.00;99.90
7720;DHT22;3902;49.474;8.616;2023-07-28T04:04:13;19.00;99.90
7720;DHT22;3902;49.474;8.616;2023-07-28T04:06:44;19.00;99.90
7720;DHT22;3902;49.474;8.616;2023-07-28T04:09:12;19.00;99.90
7720;DHT22;3902;49.474;8.616;2023-07-28T04:11:38;19.00;99.90
7720;DHT22;3902;49.474;8.616;2023-07-28T04:14:04;19.00;99.90
7720;DHT22;3902;49.474;8.616;2023-07-28T04:16:30;19.00;99.90
7720;DHT22;3902;49.474;8.616;2023-07-28T04:18:56;19.00;99.90
7720;DHT22;3902;49.474;8.616;2023-07-28T04:21:22;19.00;99.90
7720;DHT22;3902;49.474;8.616;2023-07-28T04:23:47;19.00;99.90
7720;DHT22;3902;49.474;8.616;2023-07-28T04:26:13;19.00;99.90
7720;DHT22;3902;49.474;8.616;2023-07-28T04:28:38;19.00;99.90
7720;DHT22;3902;49.474;8.616;2023-07-28T04:31:04;19.00;99.90
7720;DHT22;3902;49.474;8.616;2023-07-28T04:33:30;19.00;99.90
7720;DHT22;3902;49.474;8.616;2023-07-28T04:35:55;19.00;99.90
7720;DHT22;3902;49.474;8.616;2023-07-28T04:38:21;19.00;99.90
7720;DHT22;3902;49.474;8.616;2023-07-28T04:40:46;19.00;99.90
7720;DHT22;3902;49.474;8.616;2023-07-28T04:43:12;19.00;99.90
7720;DHT22;3902;49.474;8.616;2023-07-28T04:45:37;19.00;99.90
7720;DHT22;3902;49.474;8.616;2023-07-28T04:48:03;19.00;99.90
7720;DHT22;3902;49.474;8.616;2023-07-28T04:50:28;19.00;99.90
7720;DHT22;3902;49.474;8.616;2023-07-28T04:52:54;19.00;99.90
7720;DHT22;3902;49.474;8.616;2023-07-28T04:55:20;19.00;99.90
7720;DHT22;3902;49.474;8.616;2023-07-28T04:57:45;19.10;99.90
7720;DHT22;3902;49.474;8.616;2023-07-28T05:00:12;19.10;99.90
7720;DHT22;3902;49.474;8.616;2023-07-28T05:02:38;19.10;99.90
7720;DHT22;3902;49.474;8.616;2023-07-28T05:05:03;19.10;99.90
7720;DHT22;3902;49.474;8.616;2023-07-28T05:07:29;19.10;99.90
7720;DHT22;3902;49.474;8.616;2023-07-28T05:09:55;19.10;99.90
7720;DHT22;3902;49.474;8.616;2023-07-28T05:12:20;19.10;99.90
7720;DHT22;3902;49.474;8.616;2023-07-28T05:14:46;19.10;99.90
7720;DHT22;3902;49.474;8.616;2023-07-28T05:17:12;19.10;99.90
7720;DHT22;3902;49.474;8.616;2023-07-28T05:19:37;19.10;99.90
7720;DHT22;3902;49.474;8.616;2023-07-28T05:22:03;19.10;99.90
7720;DHT22;3902;49.474;8.616;2023-07-28T05:24:29;19.10;99.90
7720;DHT22;3902;49.474;8.616;2023-07-28T05:26:54;19.20;99.90
7720;DHT22;3902;49.474;8.616;2023-07-28T05:29:20;19.20;99.90
7720;DHT22;3902;49.474;8.616;2023-07-28T05:31:45;19.20;99.90
7720;DHT22;3902;49.474;8.616;2023-07-28T05:34:11;19.20;99.90
7720;DHT22;3902;49.474;8.616;2023-07-28T05:36:38;19.20;99.90
7720;DHT22;3902;49.474;8.616;2023-07-28T05:39:04;19.20;99.90
7720;DHT22;3902;49.474;8.616;2023-07-28T05:41:30;19.20;99.90
7720;DHT22;3902;49.474;8.616;2023-07-28T05:43:55;19.20;99.90
7720;DHT22;3902;49.474;8.616;2023-07-28T05:46:21;19.20;99.90
7720;DHT22;3902;49.474;8.616;2023-07-28T05:48:46;19.30;99.90
7720;DHT22;3902;49.474;8.616;2023-07-28T05:51:12;19.30;99.90
7720;DHT22;3902;49.474;8.616;2023-07-28T05:53:37;19.30;99.90
7720;DHT22;3902;49.474;8.616;2023-07-28T05:56:03;19.30;99.90
7720;DHT22;3902;49.474;8.616;2023-07-28T05:58:29;19.30;99.90
7720;DHT22;3902;49.474;8.616;2023-07-28T06:00:54;19.30;99.90
7720;DHT22;3902;49.474;8.616;2023-07-28T06:03:20;19.30;99.90
7720;DHT22;3902;49.474;8.616;2023-07-28T06:05:45;19.40;99.90
7720;DHT22;3902;49.474;8.616;2023-07-28T06:08:11;19.40;99.90
7720;DHT22;3902;49.474;8.616;2023-07-28T06:10:37;19.40;99.90
7720;DHT22;3902;49.474;8.616;2023-07-28T06:13:03;19.40;99.90
7720;DHT22;3902;49.474;8.616;2023-07-28T06:15:29;19.40;99.90
7720;DHT22;3902;49.474;8.616;2023-07-28T06:17:55;19.50;99.90
7720;DHT22;3902;49.474;8.616;2023-07-28T06:20:20;19.50;99.90
7720;DHT22;3902;49.474;8.616;2023-07-28T06:22:46;19.50;99.90
7720;DHT22;3902;49.474;8.616;2023-07-28T06:25:11;19.50;99.90
7720;DHT22;3902;49.474;8.616;2023-07-28T06:27:37;19.60;99.90
7720;DHT22;3902;49.474;8.616;2023-07-28T06:30:04;19.60;99.90
7720;DHT22;3902;49.474;8.616;2023-07-28T06:32:30;19.60;99.90
7720;DHT22;3902;49.474;8.616;2023-07-28T06:34:56;19.60;99.90
7720;DHT22;3902;49.474;8.616;2023-07-28T06:37:22;19.60;99.90
7720;DHT22;3902;49.474;8.616;2023-07-28T06:39:48;19.60;99.90
7720;DHT22;3902;49.474;8.616;2023-07-28T06:42:14;19.50;99.90
7720;DHT22;3902;49.474;8.616;2023-07-28T06:44:42;19.60;99.90
7720;DHT22;3902;49.474;8.616;2023-07-28T06:47:07;19.50;99.90
7720;DHT22;3902;49.474;8.616;2023-07-28T06:49:33;19.50;99.90
7720;DHT22;3902;49.474;8.616;2023-07-28T06:51:58;19.50;99.90
7720;DHT22;3902;49.474;8.616;2023-07-28T06:54:24;19.50;99.90
7720;DHT22;3902;49.474;8.616;2023-07-28T06:56:50;19.50;99.90
7720;DHT22;3902;49.474;8.616;2023-07-28T06:59:15;19.50;99.90
7720;DHT22;3902;49.474;8.616;2023-07-28T07:01:41;19.50;99.90
7720;DHT22;3902;49.474;8.616;2023-07-28T07:04:07;19.50;99.90
7720;DHT22;3902;49.474;8.616;2023-07-28T07:06:32;19.40;99.90
7720;DHT22;3902;49.474;8.616;2023-07-28T07:08:58;19.50;99.90
7720;DHT22;3902;49.474;8.616;2023-07-28T07:11:23;19.50;99.90
7720;DHT22;3902;49.474;8.616;2023-07-28T07:13:49;19.50;99.90
7720;DHT22;3902;49.474;8.616;2023-07-28T07:16:15;19.50;99.90
7720;DHT22;3902;49.474;8.616;2023-07-28T07:18:42;19.50;99.90
7720;DHT22;3902;49.474;8.616;2023-07-28T07:21:08;19.50;99.90
7720;DHT22;3902;49.474;8.616;2023-07-28T07:23:33;19.50;99.90
7720;DHT22;3902;49.474;8.616;2023-07-28T07:25:59;19.60;99.90
7720;DHT22;3902;49.474;8.616;2023-07-28T07:28:25;19.50;99.90
7720;DHT22;3902;49.474;8.616;2023-07-28T07:30:52;19.60;99.90
7720;DHT22;3902;49.474;8.616;2023-07-28T07:33:18;19.60;99.90
7720;DHT22;3902;49.474;8.616;2023-07-28T07:35:44;19.60;99.90
7720;DHT22;3902;49.474;8.616;2023-07-28T07:38:09;19.60;99.90
7720;DHT22;3902;49.474;8.616;2023-07-28T07:40:35;19.70;99.90
7720;DHT22;3902;49.474;8.616;2023-07-28T07:43:02;19.70;99.90
7720;DHT22;3902;49.474;8.616;2023-07-28T07:45:29;19.80;99.90
7720;DHT22;3902;49.474;8.616;2023-07-28T07:47:55;19.80;99.90
7720;DHT22;3902;49.474;8.616;2023-07-28T07:50:20;19.80;99.90
7720;DHT22;3902;49.474;8.616;2023-07-28T07:52:47;19.90;99.90
7720;DHT22;3902;49.474;8.616;2023-07-28T07:55:13;19.90;99.90
7720;DHT22;3902;49.474;8.616;2023-07-28T07:57:39;19.90;99.90
7720;DHT22;3902;49.474;8.616;2023-07-28T08:00:05;19.90;99.90
7720;DHT22;3902;49.474;8.616;2023-07-28T08:02:31;19.90;99.90
7720;DHT22;3902;49.474;8.616;2023-07-28T08:04:57;20.00;99.90
7720;DHT22;3902;49.474;8.616;2023-07-28T08:07:22;20.00;99.90
7720;DHT22;3902;49.474;8.616;2023-07-28T08:09:49;20.00;99.90
7720;DHT22;3902;49.474;8.616;2023-07-28T08:12:15;20.10;99.90
7720;DHT22;3902;49.474;8.616;2023-07-28T08:14:41;20.10;99.90
7720;DHT22;3902;49.474;8.616;2023-07-28T08:17:07;20.20;99.90
7720;DHT22;3902;49.474;8.616;2023-07-28T08:19:32;20.20;99.90
7720;DHT22;3902;49.474;8.616;2023-07-28T08:21:58;20.20;99.90
7720;DHT22;3902;49.474;8.616;2023-07-28T08:24:23;20.20;99.90
7720;DHT22;3902;49.474;8.616;2023-07-28T08:26:49;20.30;99.90
7720;DHT22;3902;49.474;8.616;2023-07-28T08:29:15;20.30;99.90
7720;DHT22;3902;49.474;8.616;2023-07-28T08:31:40;20.30;99.90
7720;DHT22;3902;49.474;8.616;2023-07-28T08:34:07;20.40;99.90
7720;DHT22;3902;49.474;8.616;2023-07-28T08:36:33;20.40;99.90
7720;DHT22;3902;49.474;8.616;2023-07-28T08:38:59;20.50;99.90
7720;DHT22;3902;49.474;8.616;2023-07-28T08:41:24;20.50;99.90
7720;DHT22;3902;49.474;8.616;2023-07-28T08:43:50;20.60;99.90
7720;DHT22;3902;49.474;8.616;2023-07-28T08:46:18;20.70;99.90
7720;DHT22;3902;49.474;8.616;2023-07-28T08:48:43;20.70;99.90
7720;DHT22;3902;49.474;8.616;2023-07-28T08:51:10;20.70;99.90
7720;DHT22;3902;49.474;8.616;2023-07-28T08:53:37;20.70;99.90
7720;DHT22;3902;49.474;8.616;2023-07-28T08:56:03;20.70;99.90
7720;DHT22;3902;49.474;8.616;2023-07-28T08:58:29;20.80;99.90
7720;DHT22;3902;49.474;8.616;2023-07-28T09:00:55;20.80;99.90
7720;DHT22;3902;49.474;8.616;2023-07-28T09:03:21;20.80;99.90
7720;DHT22;3902;49.474;8.616;2023-07-28T09:05:48;20.80;99.90
7720;DHT22;3902;49.474;8.616;2023-07-28T09:08:15;20.90;99.90
7720;DHT22;3902;49.474;8.616;2023-07-28T09:13:10;21.00;99.90
7720;DHT22;3902;49.474;8.616;2023-07-28T09:15:37;21.10;99.90
7720;DHT22;3902;49.474;8.616;2023-07-28T09:18:03;21.10;99.90
7720;DHT22;3902;49.474;8.616;2023-07-28T09:20:36;21.00;99.90
7720;DHT22;3902;49.474;8.616;2023-07-28T09:23:03;21.10;99.90
7720;DHT22;3902;49.474;8.616;2023-07-28T09:25:29;21.00;99.90
7720;DHT22;3902;49.474;8.616;2023-07-28T09:27:55;21.10;99.90
7720;DHT22;3902;49.474;8.616;2023-07-28T09:30:21;21.10;99.90
7720;DHT22;3902;49.474;8.616;2023-07-28T09:32:52;21.20;99.90
7720;DHT22;3902;49.474;8.616;2023-07-28T09:35:19;21.40;99.90
7720;DHT22;3902;49.474;8.616;2023-07-28T09:37:49;21.50;99.90
7720;DHT22;3902;49.474;8.616;2023-07-28T09:40:21;21.50;99.90
7720;DHT22;3902;49.474;8.616;2023-07-28T09:42:48;21.50;99.90
7720;DHT22;3902;49.474;8.616;2023-07-28T09:45:18;21.50;99.90
7720;DHT22;3902;49.474;8.616;2023-07-28T09:47:46;21.60;99.90
7720;DHT22;3902;49.474;8.616;2023-07-28T09:50:15;21.50;99.90
7720;DHT22;3902;49.474;8.616;2023-07-28T09:52:46;21.50;99.90
7720;DHT22;3902;49.474;8.616;2023-07-28T09:55:14;21.50;99.90
7720;DHT22;3902;49.474;8.616;2023-07-28T09:57:51;21.50;99.90
7720;DHT22;3902;49.474;8.616;2023-07-28T10:00:18;21.50;99.90
7720;DHT22;3902;49.474;8.616;2023-07-28T10:02:46;21.50;99.90
7720;DHT22;3902;49.474;8.616;2023-07-28T10:05:12;21.50;99.90
7720;DHT22;3902;49.474;8.616;2023-07-28T10:07:43;21.50;99.90
7720;DHT22;3902;49.474;8.616;2023-07-28T10:10:11;21.40;99.90
7720;DHT22;3902;49.474;8.616;2023-07-28T10:12:48;21.40;99.90
7720;DHT22;3902;49.474;8.616;2023-07-28T10:15:17;21.30;99.90
7720;DHT22;3902;49.474;8.616;2023-07-28T10:17:47;21.20;99.90
7720;DHT22;3902;49.474;8.616;2023-07-28T10:20:28;21.20;99.90
7720;DHT22;3902;49.474;8.616;2023-07-28T10:22:56;21.20;99.90
7720;DHT22;3902;49.474;8.616;2023-07-28T10:25:32;21.20;99.90
7720;DHT22;3902;49.474;8.616;2023-07-28T10:27:58;21.40;99.90
7720;DHT22;3902;49.474;8.616;2023-07-28T10:30:24;21.60;99.90
7720;DHT22;3902;49.474;8.616;2023-07-28T10:32:50;21.80;99.90
7720;DHT22;3902;49.474;8.616;2023-07-28T10:35:23;21.90;99.90
7720;DHT22;3902;49.474;8.616;2023-07-28T10:37:50;22.00;99.90
7720;DHT22;3902;49.474;8.616;2023-07-28T10:40:35;22.10;99.90
7720;DHT22;3902;49.474;8.616;2023-07-28T10:43:02;22.10;99.90
7720;DHT22;3902;49.474;8.616;2023-07-28T10:45:29;22.10;99.90
7720;DHT22;3902;49.474;8.616;2023-07-28T10:47:56;22.10;99.90
7720;DHT22;3902;49.474;8.616;2023-07-28T10:50:22;22.10;99.90
7720;DHT22;3902;49.474;8.616;2023-07-28T10:52:48;22.00;99.90
7720;DHT22;3902;49.474;8.616;2023-07-28T10:55:14;22.00;99.90
7720;DHT22;3902;49.474;8.616;2023-07-28T10:57:41;22.00;99.90
7720;DHT22;3902;49.474;8.616;2023-07-28T11:00:08;21.90;99.90
7720;DHT22;3902;49.474;8.616;2023-07-28T11:02:46;21.90;99.90
7720;DHT22;3902;49.474;8.616;2023-07-28T11:05:18;21.90;99.90
7720;DHT22;3902;49.474;8.616;2023-07-28T11:07:44;21.90;99.90
7720;DHT22;3902;49.474;8.616;2023-07-28T11:10:10;22.00;99.90
7720;DHT22;3902;49.474;8.616;2023-07-28T11:12:42;22.00;99.90
7720;DHT22;3902;49.474;8.616;2023-07-28T11:15:10;21.90;99.90
7720;DHT22;3902;49.474;8.616;2023-07-28T11:17:38;21.90;99.90
7720;DHT22;3902;49.474;8.616;2023-07-28T11:20:05;21.90;99.90
7720;DHT22;3902;49.474;8.616;2023-07-28T11:22:36;21.90;99.90
7720;DHT22;3902;49.474;8.616;2023-07-28T11:25:02;21.90;99.90
7720;DHT22;3902;49.474;8.616;2023-07-28T11:27:31;21.90;99.90
7720;DHT22;3902;49.474;8.616;2023-07-28T11:29:57;21.90;99.90
7720;DHT22;3902;49.474;8.616;2023-07-28T11:32:22;22.00;99.90
7720;DHT22;3902;49.474;8.616;2023-07-28T11:34:49;21.90;99.90
7720;DHT22;3902;49.474;8.616;2023-07-28T11:37:15;21.90;99.90
7720;DHT22;3902;49.474;8.616;2023-07-28T11:39:41;21.90;99.90
7720;DHT22;3902;49.474;8.616;2023-07-28T11:42:07;21.90;99.90
7720;DHT22;3902;49.474;8.616;2023-07-28T11:44:34;21.90;99.90
7720;DHT22;3902;49.474;8.616;2023-07-28T11:47:04;21.90;99.90
7720;DHT22;3902;49.474;8.616;2023-07-28T11:49:30;21.90;99.90
7720;DHT22;3902;49.474;8.616;2023-07-28T11:51:56;22.00;99.90
7720;DHT22;3902;49.474;8.616;2023-07-28T11:54:25;22.00;99.90
7720;DHT22;3902;49.474;8.616;2023-07-28T11:56:55;22.00;99.90
7720;DHT22;3902;49.474;8.616;2023-07-28T11:59:21;22.00;99.90
7720;DHT22;3902;49.474;8.616;2023-07-28T12:01:57;22.00;99.90
7720;DHT22;3902;49.474;8.616;2023-07-28T12:04:24;22.00;99.90
7720;DHT22;3902;49.474;8.616;2023-07-28T12:07:13;21.90;99.90
7720;DHT22;3902;49.474;8.616;2023-07-28T12:12:11;21.90;99.90
7720;DHT22;3902;49.474;8.616;2023-07-28T12:14:36;21.90;99.90
7720;DHT22;3902;49.474;8.616;2023-07-28T12:17:11;21.90;99.90
7720;DHT22;3902;49.474;8.616;2023-07-28T12:20:02;21.90;99.90
7720;DHT22;3902;49.474;8.616;2023-07-28T12:22:27;21.80;99.90
7720;DHT22;3902;49.474;8.616;2023-07-28T12:24:53;21.90;99.90
7720;DHT22;3902;49.474;8.616;2023-07-28T12:27:19;21.90;99.90
7720;DHT22;3902;49.474;8.616;2023-07-28T12:29:49;21.90;99.90
7720;DHT22;3902;49.474;8.616;2023-07-28T12:32:14;21.90;99.90
7720;DHT22;3902;49.474;8.616;2023-07-28T12:34:40;21.80;99.90
7720;DHT22;3902;49.474;8.616;2023-07-28T12:37:06;21.80;99.90
7720;DHT22;3902;49.474;8.616;2023-07-28T12:39:31;21.80;99.90
7720;DHT22;3902;49.474;8.616;2023-07-28T12:41:57;21.80;99.90
7720;DHT22;3902;49.474;8.616;2023-07-28T12:44:23;21.80;99.90
7720;DHT22;3902;49.474;8.616;2023-07-28T12:46:48;21.70;99.90
7720;DHT22;3902;49.474;8.616;2023-07-28T12:49:13;21.70;99.90
7720;DHT22;3902;49.474;8.616;2023-07-28T12:51:40;21.70;99.90
7720;DHT22;3902;49.474;8.616;2023-07-28T12:54:05;21.80;99.90
7720;DHT22;3902;49.474;8.616;2023-07-28T12:56:32;21.80;99.90
7720;DHT22;3902;49.474;8.616;2023-07-28T12:58:58;21.80;99.90
7720;DHT22;3902;49.474;8.616;2023-07-28T13:01:23;21.80;99.90
7720;DHT22;3902;49.474;8.616;2023-07-28T13:03:49;21.80;99.90
7720;DHT22;3902;49.474;8.616;2023-07-28T13:06:14;21.80;99.90
7720;DHT22;3902;49.474;8.616;2023-07-28T13:08:40;21.70;99.90
7720;DHT22;3902;49.474;8.616;2023-07-28T13:11:05;21.60;99.90
7720;DHT22;3902;49.474;8.616;2023-07-28T13:13:31;21.60;99.90
7720;DHT22;3902;49.474;8.616;2023-07-28T13:15:58;21.60;99.90
7720;DHT22;3902;49.474;8.616;2023-07-28T13:18:24;21.50;99.90
7720;DHT22;3902;49.474;8.616;2023-07-28T13:20:50;21.30;99.90
7720;DHT22;3902;49.474;8.616;2023-07-28T13:23:16;21.30;99.90
7720;DHT22;3902;49.474;8.616;2023-07-28T13:25:42;21.30;99.90
7720;DHT22;3902;49.474;8.616;2023-07-28T13:28:07;21.30;99.90
7720;DHT22;3902;49.474;8.616;2023-07-28T13:30:33;21.20;99.90
7720;DHT22;3902;49.474;8.616;2023-07-28T13:32:58;21.20;99.90
7720;DHT22;3902;49.474;8.616;2023-07-28T13:35:24;21.30;99.90
7720;DHT22;3902;49.474;8.616;2023-07-28T13:37:50;21.10;99.90
7720;DHT22;3902;49.474;8.616;2023-07-28T13:40:15;21.00;99.90
7720;DHT22;3902;49.474;8.616;2023-07-28T13:42:41;21.10;99.90
7720;DHT22;3902;49.474;8.616;2023-07-28T13:45:08;21.10;99.90
7720;DHT22;3902;49.474;8.616;2023-07-28T13:47:34;21.10;99.90
7720;DHT22;3902;49.474;8.616;2023-07-28T13:49:59;21.10;99.90
7720;DHT22;3902;49.474;8.616;2023-07-28T13:52:25;21.00;99.90
7720;DHT22;3902;49.474;8.616;2023-07-28T13:54:50;21.00;99.90
7720;DHT22;3902;49.474;8.616;2023-07-28T13:57:16;21.00;99.90
7720;DHT22;3902;49.474;8.616;2023-07-28T13:59:41;20.90;99.90
7720;DHT22;3902;49.474;8.616;2023-07-28T14:02:07;20.90;99.90
7720;DHT22;3902;49.474;8.616;2023-07-28T14:04:33;21.00;99.90
7720;DHT22;3902;49.474;8.616;2023-07-28T14:06:59;21.00;99.90
7720;DHT22;3902;49.474;8.616;2023-07-28T14:09:25;21.00;99.90
7720;DHT22;3902;49.474;8.616;2023-07-28T14:11:50;21.00;99.90
7720;DHT22;3902;49.474;8.616;2023-07-28T14:14:16;21.00;99.90
7720;DHT22;3902;49.474;8.616;2023-07-28T14:16:41;21.00;99.90
7720;DHT22;3902;49.474;8.616;2023-07-28T14:19:08;21.00;99.90
7720;DHT22;3902;49.474;8.616;2023-07-28T14:21:33;21.00;99.90
7720;DHT22;3902;49.474;8.616;2023-07-28T14:23:59;21.00;99.90
7720;DHT22;3902;49.474;8.616;2023-07-28T14:26:24;21.00;99.90
7720;DHT22;3902;49.474;8.616;2023-07-28T14:28:50;21.00;99.90
7720;DHT22;3902;49.474;8.616;2023-07-28T14:31:15;21.10;99.90
7720;DHT22;3902;49.474;8.616;2023-07-28T14:33:41;21.00;99.90
7720;DHT22;3902;49.474;8.616;2023-07-28T14:36:07;21.00;99.90
7720;DHT22;3902;49.474;8.616;2023-07-28T14:38:32;21.00;99.90
7720;DHT22;3902;49.474;8.616;2023-07-28T14:40:58;21.10;99.90
7720;DHT22;3902;49.474;8.616;2023-07-28T14:43:24;21.10;99.90
7720;DHT22;3902;49.474;8.616;2023-07-28T14:45:50;21.10;99.90
7720;DHT22;3902;49.474;8.616;2023-07-28T14:48:16;21.10;99.90
7720;DHT22;3902;49.474;8.616;2023-07-28T14:50:42;21.10;99.90
7720;DHT22;3902;49.474;8.616;2023-07-28T14:53:33;21.10;99.90
7720;DHT22;3902;49.474;8.616;2023-07-28T14:56:00;21.10;99.90
7720;DHT22;3902;49.474;8.616;2023-07-28T14:58:27;21.10;99.90
7720;DHT22;3902;49.474;8.616;2023-07-28T15:00:52;21.10;99.90
7720;DHT22;3902;49.474;8.616;2023-07-28T15:03:18;21.10;99.90
7720;DHT22;3902;49.474;8.616;2023-07-28T15:05:43;21.10;99.90
7720;DHT22;3902;49.474;8.616;2023-07-28T15:08:09;21.10;99.90
7720;DHT22;3902;49.474;8.616;2023-07-28T15:10:35;21.00;99.90
7720;DHT22;3902;49.474;8.616;2023-07-28T15:13:00;21.00;99.90
7720;DHT22;3902;49.474;8.616;2023-07-28T15:15:26;21.00;99.90
7720;DHT22;3902;49.474;8.616;2023-07-28T15:17:51;20.90;99.90
7720;DHT22;3902;49.474;8.616;2023-07-28T15:20:17;20.90;99.90
7720;DHT22;3902;49.474;8.616;2023-07-28T15:22:47;20.90;99.90
7720;DHT22;3902;49.474;8.616;2023-07-28T15:25:13;20.90;99.90
7720;DHT22;3902;49.474;8.616;2023-07-28T15:27:42;20.90;99.90
7720;DHT22;3902;49.474;8.616;2023-07-28T15:30:08;20.90;99.90
7720;DHT22;3902;49.474;8.616;2023-07-28T15:32:35;20.90;99.90
7720;DHT22;3902;49.474;8.616;2023-07-28T15:35:01;20.90;99.90
7720;DHT22;3902;49.474;8.616;2023-07-28T15:37:27;20.90;99.90
7720;DHT22;3902;49.474;8.616;2023-07-28T15:39:53;20.90;99.90
7720;DHT22;3902;49.474;8.616;2023-07-28T15:42:19;20.90;99.90
7720;DHT22;3902;49.474;8.616;2023-07-28T15:44:44;20.90;99.90
7720;DHT22;3902;49.474;8.616;2023-07-28T15:47:10;21.00;99.90
7720;DHT22;3902;49.474;8.616;2023-07-28T15:49:36;20.90;99.90
7720;DHT22;3902;49.474;8.616;2023-07-28T15:52:01;20.90;99.90
7720;DHT22;3902;49.474;8.616;2023-07-28T15:54:27;20.90;99.90
7720;DHT22;3902;49.474;8.616;2023-07-28T15:56:53;20.90;99.90
7720;DHT22;3902;49.474;8.616;2023-07-28T15:59:19;20.90;99.90
7720;DHT22;3902;49.474;8.616;2023-07-28T16:01:45;20.90;99.90
7720;DHT22;3902;49.474;8.616;2023-07-28T16:04:10;20.90;99.90
7720;DHT22;3902;49.474;8.616;2023-07-28T16:06:36;21.00;99.90